Time;durP1;ratioP1;P1;durP2;ratioP2;P2;SDS_P1;SDS_P2;PMS_P1;PMS_P2;Temp;Humidity;BMP_temperature;BMP_pressure;BME280_temperature;BME280_humidity;BME280_pressure;Samples;Min_cycle;Max_cycle;Signal;HPM_P1;HPM_P2
2022/03/29 00:00:26;;;;;;;21.17;16.27;;;;;;;11.53;67.68;99148.81;4994012;28;20188;-81
2022/03/29 00:02:53;;;;;;;22.17;15.65;;;;;;;11.34;68.34;99143.84;4995194;28;20583;-81
2022/03/29 00:05:19;;;;;;;21.15;15.05;;;;;;;11.18;69.55;99137.78;4980372;28;20646;-81
2022/03/29 00:07:46;;;;;;;20.77;15.43;;;;;;;11.13;69.45;99139.94;4982686;28;20192;-81
2022/03/29 00:10:14;;;;;;;21.90;16.40;;;;;;;11.19;69.24;99148.47;4984911;28;20204;-81
2022/03/29 00:12:41;;;;;;;22.23;16.27;;;;;;;11.05;70.39;99138.59;4980805;28;20192;-81
2022/03/29 00:15:08;;;;;;;20.25;15.02;;;;;;;11.16;69.60;99137.00;4988576;28;20196;-81
2022/03/29 00:17:35;;;;;;;23.13;15.75;;;;;;;11.10;70.01;99121.25;4989293;28;20215;-81
2022/03/29 00:20:02;;;;;;;20.08;15.70;;;;;;;10.83;71.40;99122.13;4991407;28;20657;-81
2022/03/29 00:22:29;;;;;;;21.23;15.52;;;;;;;10.77;71.96;99123.41;4986688;28;20581;-81
2022/03/29 00:24:55;;;;;;;25.58;16.67;;;;;;;10.96;70.75;99122.19;4987923;28;20664;-81
2022/03/29 00:27:23;;;;;;;21.67;16.70;;;;;;;11.26;69.02;99113.84;4980193;28;20199;-82
2022/03/29 00:29:50;;;;;;;20.27;15.93;;;;;;;11.34;68.13;99111.50;4995789;28;20219;-81
2022/03/29 00:32:16;;;;;;;19.13;15.43;;;;;;;11.45;67.52;99103.53;4986262;28;20278;-82
2022/03/29 00:34:43;;;;;;;20.50;16.10;;;;;;;11.46;67.21;99109.78;4981961;28;20199;-82
2022/03/29 00:37:10;;;;;;;21.88;16.55;;;;;;;11.29;68.30;99108.25;4988392;28;20198;-81
2022/03/29 00:39:36;;;;;;;23.02;17.30;;;;;;;11.45;67.93;99099.97;4989814;28;20639;-81
2022/03/29 00:42:05;;;;;;;20.88;15.05;;;;;;;11.53;67.04;99102.13;4983790;28;20253;-81
2022/03/29 00:44:38;;;;;;;20.05;16.25;;;;;;;11.57;66.85;99095.56;4988123;28;20192;-81
2022/03/29 00:47:05;;;;;;;20.48;16.38;;;;;;;11.45;66.99;99092.75;4987341;28;20226;-80
2022/03/29 00:49:32;;;;;;;19.27;16.40;;;;;;;11.34;67.29;99092.63;4991094;28;20200;-81
2022/03/29 00:52:02;;;;;;;21.38;16.00;;;;;;;10.96;69.61;99095.25;4987399;28;20214;-81
2022/03/29 00:54:32;;;;;;;22.15;16.05;;;;;;;10.72;71.09;99089.66;4988960;28;20202;-81
2022/03/29 00:57:01;;;;;;;21.83;15.93;;;;;;;10.83;70.20;99096.09;4995970;28;20191;-80
2022/03/29 00:59:29;;;;;;;21.17;15.48;;;;;;;10.97;70.00;99081.69;4988130;28;20203;-83
2022/03/29 01:01:58;;;;;;;21.55;16.40;;;;;;;10.80;71.37;99088.19;4994820;28;20237;-81
2022/03/29 01:04:25;;;;;;;24.02;17.15;;;;;;;10.80;71.84;99080.13;4983950;28;20518;-81
2022/03/29 01:06:53;;;;;;;21.95;15.70;;;;;;;10.87;71.53;99080.56;4981163;28;20189;-81
2022/03/29 01:09:20;;;;;;;19.67;15.55;;;;;;;10.89;71.69;99081.34;4981375;28;20195;-82
2022/03/29 01:11:47;;;;;;;21.50;16.35;;;;;;;10.94;71.29;99076.50;4986774;28;20211;-82
2022/03/29 01:14:13;;;;;;;19.35;15.38;;;;;;;10.90;71.54;99072.31;4986940;28;20200;-81
2022/03/29 01:19:26;;;;;;;21.98;15.45;;;;;;;10.66;72.93;99065.88;4984211;28;20225;-81
2022/03/29 01:21:59;;;;;;;20.83;14.57;;;;;;;10.57;73.79;99070.91;4984735;28;20203;-81
2022/03/29 01:24:26;;;;;;;20.27;16.00;;;;;;;10.62;73.85;99063.38;4977221;28;20192;-82
2022/03/29 01:26:53;;;;;;;21.45;15.32;;;;;;;10.49;74.50;99066.97;4989220;28;20187;-81
2022/03/29 01:29:21;;;;;;;22.67;16.95;;;;;;;10.51;74.21;99059.66;4991180;28;20650;-81
2022/03/29 01:31:49;;;;;;;19.25;15.57;;;;;;;10.43;74.48;99055.66;4977040;28;20200;-82
2022/03/29 01:34:16;;;;;;;22.20;16.42;;;;;;;10.47;74.41;99068.91;4986743;28;20713;-81
2022/03/29 01:36:43;;;;;;;21.42;15.82;;;;;;;10.35;75.65;99052.59;4994527;28;20195;-82
2022/03/29 01:39:11;;;;;;;20.17;16.25;;;;;;;10.45;74.69;99058.25;4986543;28;20531;-82
2022/03/29 01:41:38;;;;;;;23.83;16.08;;;;;;;10.65;73.08;99051.56;4989424;28;20198;-81
2022/03/29 01:44:06;;;;;;;20.40;16.20;;;;;;;10.72;72.97;99046.59;4985684;28;20231;-82
2022/03/29 01:46:32;;;;;;;22.42;17.00;;;;;;;10.65;73.11;99048.88;4993148;28;20531;-81
2022/03/29 01:49:00;;;;;;;23.20;17.92;;;;;;;10.61;73.37;99048.19;4978731;28;20192;-81
2022/03/29 01:51:26;;;;;;;20.38;15.50;;;;;;;10.51;73.63;99046.22;4990405;28;20195;-81
2022/03/29 01:53:54;;;;;;;20.50;14.90;;;;;;;10.55;73.39;99036.97;4986108;28;20198;-82
2022/03/29 01:56:22;;;;;;;22.73;16.55;;;;;;;10.40;74.11;99033.47;4986803;28;20254;-81
2022/03/29 01:58:49;;;;;;;21.13;16.65;;;;;;;10.42;74.28;99036.91;4986193;28;20576;-81
2022/03/29 02:01:16;;;;;;;20.08;14.93;;;;;;;10.26;75.76;99030.78;4985663;28;20241;-82
2022/03/29 02:03:43;;;;;;;18.77;15.52;;;;;;;10.32;76.01;99033.97;4993616;28;20221;-82
2022/03/29 02:06:09;;;;;;;19.95;15.43;;;;;;;10.39;75.36;99038.00;4984306;28;20195;-81
2022/03/29 02:08:36;;;;;;;22.27;15.93;;;;;;;10.33;75.65;99037.53;4978787;28;20192;-81
2022/03/29 02:11:02;;;;;;;20.45;15.15;;;;;;;10.19;76.74;99039.25;4991915;28;20566;-82
2022/03/29 02:13:30;;;;;;;19.27;15.40;;;;;;;10.39;75.43;99038.00;4985960;28;20285;-82
2022/03/29 02:15:57;;;;;;;22.13;14.90;;;;;;;10.40;74.90;99042.41;4978225;28;20670;-82
2022/03/29 02:18:23;;;;;;;19.60;15.52;;;;;;;10.36;75.24;99031.97;4985849;28;20570;-81
2022/03/29 02:20:50;;;;;;;21.05;15.85;;;;;;;10.21;76.26;99025.72;4988870;28;20642;-81
2022/03/29 02:23:17;;;;;;;21.17;15.55;;;;;;;10.14;76.90;99019.88;4992777;28;20278;-82
2022/03/29 02:25:45;;;;;;;28.83;15.50;;;;;;;10.10;77.46;99020.19;4983977;28;20189;-80
2022/03/29 02:28:12;;;;;;;19.90;15.25;;;;;;;10.27;76.22;99016.41;4984588;28;20535;-81
2022/03/29 02:30:40;;;;;;;19.25;15.43;;;;;;;10.27;76.21;99008.31;4990025;28;20198;-81
2022/03/29 02:33:08;;;;;;;21.00;15.32;;;;;;;10.30;75.79;99013.53;4980998;28;20188;-81
2022/03/29 02:35:35;;;;;;;24.70;15.73;;;;;;;10.27;76.08;99005.63;4982380;28;20191;-82
2022/03/29 02:38:01;;;;;;;21.00;15.60;;;;;;;10.22;75.82;99004.09;4985457;28;20692;-81
2022/03/29 02:40:28;;;;;;;17.83;15.93;;;;;;;10.22;75.85;99009.47;4985322;28;20642;-82
2022/03/29 02:42:56;;;;;;;20.15;16.13;;;;;;;10.07;76.93;99005.09;4987043;28;20198;-81
2022/03/29 02:45:24;;;;;;;17.70;14.57;;;;;;;10.28;75.98;99005.50;4985531;28;20191;-82
2022/03/29 02:47:54;;;;;;;21.30;16.55;;;;;;;10.10;76.91;99001.34;4979121;28;20588;-82
2022/03/29 02:50:22;;;;;;;22.67;15.57;;;;;;;9.93;77.99;98999.78;4981490;28;20187;-82
2022/03/29 02:52:50;;;;;;;23.23;16.33;;;;;;;9.79;79.61;98990.78;4982218;28;20203;-82
2022/03/29 02:55:18;;;;;;;24.38;17.38;;;;;;;9.71;80.75;98986.84;4981979;28;20659;-82
2022/03/29 02:57:46;;;;;;;23.05;15.43;;;;;;;9.87;79.70;98978.66;4982521;28;20200;-82
2022/03/29 03:00:15;;;;;;;19.80;15.15;;;;;;;10.02;78.49;98974.97;4982666;28;20653;-82
2022/03/29 03:02:42;;;;;;;19.85;16.10;;;;;;;9.95;78.51;98974.50;4988795;28;20238;-83
2022/03/29 03:05:10;;;;;;;21.38;15.52;;;;;;;9.87;79.00;98970.59;4980266;28;20191;-82
2022/03/29 03:07:37;;;;;;;20.60;15.05;;;;;;;9.78;79.96;98967.53;4981845;28;20565;-82
2022/03/29 03:10:04;;;;;;;23.27;15.55;;;;;;;9.79;80.05;98965.69;4987328;28;20191;-82
2022/03/29 03:12:35;;;;;;;21.33;16.60;;;;;;;9.85;79.90;98972.50;4979754;28;20195;-82
2022/03/29 03:15:02;;;;;;;18.90;15.48;;;;;;;9.73;80.94;98966.97;4981165;28;20266;-83
2022/03/29 03:17:28;;;;;;;20.33;15.63;;;;;;;9.62;82.00;98957.88;4981533;28;20214;-81
2022/03/29 03:19:55;;;;;;;22.95;16.08;;;;;;;9.51;83.15;98958.56;4974020;28;20217;-82
2022/03/29 03:22:23;;;;;;;25.52;16.27;;;;;;;9.35;84.79;98959.53;4989423;28;20209;-82
2022/03/29 03:24:49;;;;;;;19.23;14.98;;;;;;;9.48;83.74;98958.75;4981452;28;20204;-82
2022/03/29 03:27:17;;;;;;;20.00;15.73;;;;;;;9.53;82.75;98960.19;4980720;28;20216;-82
2022/03/29 03:29:44;;;;;;;22.70;15.57;;;;;;;9.49;82.80;98955.97;4981440;28;20195;-82
2022/03/29 03:32:10;;;;;;;21.73;15.82;;;;;;;9.32;84.53;98957.03;4981475;28;20710;-81
2022/03/29 03:34:37;;;;;;;21.63;16.33;;;;;;;9.47;83.88;98948.97;4984343;28;20653;-81
2022/03/29 03:37:05;;;;;;;19.02;15.60;;;;;;;9.48;83.14;98950.69;4979206;28;20636;-81
2022/03/29 03:39:34;;;;;;;22.88;15.90;;;;;;;9.43;83.62;98945.63;4994730;28;20671;-81
2022/03/29 03:42:01;;;;;;;27.00;17.35;;;;;;;9.35;83.94;98950.59;4988983;28;20194;-82
2022/03/29 03:44:27;;;;;;;19.95;15.38;;;;;;;9.59;82.43;98943.66;4984345;28;20208;-82
2022/03/29 03:46:54;;;;;;;24.23;17.25;;;;;;;9.51;82.63;98942.44;4986845;28;20217;-81
2022/03/29 03:49:22;;;;;;;22.15;15.75;;;;;;;9.40;83.60;98938.59;4985388;28;20545;-82
2022/03/29 03:51:49;;;;;;;19.58;16.23;;;;;;;9.40;83.28;98933.22;4987074;28;20202;-81
2022/03/29 03:54:15;;;;;;;21.58;15.80;;;;;;;9.40;83.07;98929.69;4994719;28;20191;-81
2022/03/29 03:56:43;;;;;;;20.52;14.73;;;;;;;9.42;83.15;98933.13;4996327;28;20206;-81
2022/03/29 03:59:10;;;;;;;19.42;15.00;;;;;;;9.60;81.91;98928.41;4994210;28;20209;-81
2022/03/29 04:01:36;;;;;;;24.20;17.23;;;;;;;9.58;81.76;98917.75;4991360;28;20850;-81
2022/03/29 04:04:03;;;;;;;22.17;15.68;;;;;;;9.44;83.04;98917.78;4985306;28;20196;-81
2022/03/29 04:06:30;;;;;;;20.70;16.02;;;;;;;9.35;83.87;98918.38;4990405;28;20188;-81
2022/03/29 04:08:57;;;;;;;20.02;15.90;;;;;;;9.35;83.65;98919.22;4988274;28;20299;-82
2022/03/29 04:11:24;;;;;;;20.50;16.88;;;;;;;9.26;84.46;98911.75;4986342;28;20194;-82
2022/03/29 04:13:52;;;;;;;22.83;16.70;;;;;;;9.16;85.42;98911.50;4989946;28;20291;-82
2022/03/29 04:16:20;;;;;;;24.00;16.30;;;;;;;9.15;85.80;98917.81;4985234;28;20197;-81
2022/03/29 04:18:46;;;;;;;24.00;16.33;;;;;;;9.12;85.93;98914.47;4988643;28;20227;-81
2022/03/29 04:21:13;;;;;;;21.83;16.00;;;;;;;9.12;86.08;98906.41;4992831;28;20548;-83
2022/03/29 04:23:40;;;;;;;25.25;16.25;;;;;;;9.28;84.91;98914.34;4990510;28;20194;-83
2022/03/29 04:26:06;;;;;;;24.75;15.50;;;;;;;9.26;84.54;98909.06;4985442;28;20196;-82
2022/03/29 04:28:33;;;;;;;23.02;16.60;;;;;;;9.28;84.73;98899.09;4991113;28;20272;-82
2022/03/29 04:31:01;;;;;;;20.15;17.13;;;;;;;9.01;86.78;98903.53;4990930;28;20561;-81
2022/03/29 04:33:29;;;;;;;34.90;20.20;;;;;;;9.11;87.83;98899.28;4991774;28;20631;-83
2022/03/29 04:35:56;;;;;;;23.20;16.52;;;;;;;9.01;87.31;98892.78;4991988;28;20208;-82
2022/03/29 04:38:23;;;;;;;25.40;17.15;;;;;;;9.02;87.45;98892.69;4991894;28;20184;-82
2022/03/29 04:40:50;;;;;;;28.88;18.55;;;;;;;9.05;88.11;98891.66;4988448;28;20197;-82
2022/03/29 04:43:16;;;;;;;25.60;17.75;;;;;;;9.07;87.46;98889.72;4992318;28;20275;-82
2022/03/29 04:45:43;;;;;;;26.52;17.67;;;;;;;9.11;87.34;98891.25;4990200;28;20198;-82
2022/03/29 04:48:12;;;;;;;26.15;17.88;;;;;;;9.22;85.99;98894.09;4986299;28;20719;-82
2022/03/29 04:50:39;;;;;;;27.70;21.13;;;;;;;9.13;86.22;98895.53;4989069;28;20192;-82
2022/03/29 04:53:05;;;;;;;29.50;21.88;;;;;;;9.36;85.22;98896.78;4992387;28;20196;-82
2022/03/29 04:55:32;;;;;;;30.13;21.70;;;;;;;9.26;85.46;98901.00;4995513;28;20190;-82
2022/03/29 04:58:00;;;;;;;35.58;24.92;;;;;;;9.00;87.48;98891.03;4980281;28;20201;-80
2022/03/29 05:00:26;;;;;;;32.55;24.52;;;;;;;8.93;87.80;98895.94;4991197;28;20559;-82
2022/03/29 05:02:53;;;;;;;40.40;27.95;;;;;;;8.91;87.78;98895.16;4980071;28;20589;-82
2022/03/29 05:05:22;;;;;;;40.35;28.55;;;;;;;8.90;88.12;98886.25;4990209;28;20527;-82
2022/03/29 05:07:48;;;;;;;42.38;29.50;;;;;;;8.92;87.77;98887.03;4979273;28;20192;-81
2022/03/29 05:10:15;;;;;;;48.58;29.48;;;;;;;8.90;87.77;98885.41;4982636;28;20183;-82
2022/03/29 05:12:43;;;;;;;49.75;34.40;;;;;;;8.93;87.96;98894.16;4986916;28;20203;-81
2022/03/29 05:15:11;;;;;;;51.22;36.55;;;;;;;9.00;87.62;98883.88;4979240;28;20622;-81
2022/03/29 05:17:37;;;;;;;62.35;44.45;;;;;;;8.98;88.43;98883.13;4987219;28;20223;-82
2022/03/29 05:20:06;;;;;;;64.15;44.47;;;;;;;9.05;87.87;98883.59;4982517;28;20204;-81
2022/03/29 05:22:41;;;;;;;51.38;37.95;;;;;;;8.99;88.59;98879.44;4980697;28;20196;-80
2022/03/29 05:25:08;;;;;;;47.90;34.30;;;;;;;9.00;88.33;98874.94;4990949;28;20524;-81
2022/03/29 05:27:35;;;;;;;41.92;30.60;;;;;;;9.10;88.04;98876.09;4985631;28;20246;-82
2022/03/29 05:30:04;;;;;;;34.80;23.20;;;;;;;9.19;86.17;98873.69;4986744;28;20617;-83
2022/03/29 05:32:31;;;;;;;33.70;21.17;;;;;;;9.04;86.86;98879.16;4987256;28;20201;-82
2022/03/29 05:34:58;;;;;;;30.27;20.88;;;;;;;9.16;86.38;98875.72;4986255;28;20203;-82
2022/03/29 05:37:24;;;;;;;28.70;20.05;;;;;;;9.16;85.98;98883.78;4988576;28;20506;-81
2022/03/29 05:39:52;;;;;;;29.23;20.67;;;;;;;9.17;86.34;98888.16;4984138;28;20310;-81
2022/03/29 05:42:20;;;;;;;28.63;20.30;;;;;;;9.20;86.10;98877.22;4986102;28;20192;-82
2022/03/29 05:44:46;;;;;;;25.70;19.10;;;;;;;9.41;84.85;98885.75;4985734;28;20636;-82
2022/03/29 05:49:57;;;;;;;31.27;20.65;;;;;;;9.37;85.88;98889.59;4981993;28;20277;-83
2022/03/29 05:52:25;;;;;;;37.47;19.52;;;;;;;9.37;85.38;98886.91;4986949;28;20197;-80
2022/03/29 05:54:53;;;;;;;28.30;19.85;;;;;;;9.56;83.92;98876.66;4991575;28;20280;-85
2022/03/29 05:57:20;;;;;;;27.40;20.55;;;;;;;9.40;85.49;98881.31;4992923;28;20214;-84
2022/03/29 05:59:46;;;;;;;25.65;18.75;;;;;;;9.01;88.00;98871.31;4998001;28;20584;-76
2022/03/29 06:02:13;;;;;;;26.08;19.48;;;;;;;9.21;87.84;98881.66;4993458;28;20281;-77
2022/03/29 06:04:40;;;;;;;26.77;19.23;;;;;;;9.44;86.69;98882.00;4993444;28;20200;-77
2022/03/29 06:07:07;;;;;;;32.60;21.70;;;;;;;9.67;84.84;98875.97;4986037;28;20241;-78
2022/03/29 06:09:35;;;;;;;29.75;19.73;;;;;;;9.78;84.03;98880.63;4983538;28;20238;-77
2022/03/29 06:12:05;;;;;;;30.10;21.05;;;;;;;9.90;83.27;98879.81;4985645;28;20187;-78
2022/03/29 06:14:32;;;;;;;28.05;19.50;;;;;;;10.09;81.44;98883.97;4984985;28;20190;-79
2022/03/29 06:17:00;;;;;;;31.35;19.80;;;;;;;10.23;80.42;98883.88;4977907;28;20198;-78
2022/03/29 06:19:27;;;;;;;31.63;20.92;;;;;;;10.31;79.55;98878.91;4983320;28;20984;-79
2022/03/29 06:21:53;;;;;;;29.23;20.40;;;;;;;10.11;80.17;98882.91;4978357;28;20963;-77
2022/03/29 06:24:20;;;;;;;31.02;20.05;;;;;;;9.95;81.64;98885.75;4992483;28;20202;-77
2022/03/29 06:26:47;;;;;;;30.33;19.33;;;;;;;9.93;82.21;98878.78;4984915;28;20217;-76
2022/03/29 06:29:14;;;;;;;37.38;20.42;;;;;;;9.97;81.93;98883.84;4986034;28;20195;-76
2022/03/29 06:31:41;;;;;;;30.25;20.60;;;;;;;10.10;81.66;98878.47;4990126;28;21144;-80
2022/03/29 06:34:09;;;;;;;28.73;20.67;;;;;;;10.25;81.34;98884.66;4984693;28;20207;-77
2022/03/29 06:36:35;;;;;;;30.08;22.00;;;;;;;10.53;80.07;98885.47;4991099;28;20195;-78
2022/03/29 06:39:02;;;;;;;24.00;19.05;;;;;;;10.79;78.31;98880.97;4979183;28;20194;-79
2022/03/29 06:41:29;;;;;;;37.22;21.15;;;;;;;10.94;77.04;98865.53;4992446;28;20541;-77
2022/03/29 06:43:55;;;;;;;29.10;21.63;;;;;;;11.11;76.33;98877.81;4985342;28;20201;-76
2022/03/29 06:46:23;;;;;;;45.97;21.80;;;;;;;11.06;76.14;98865.53;4989517;28;20529;-78
2022/03/29 06:48:50;;;;;;;45.45;21.55;;;;;;;10.98;77.14;98870.59;4979133;28;20204;-80
2022/03/29 06:51:18;;;;;;;29.55;20.58;;;;;;;10.94;76.83;98863.69;4992466;28;20202;-80
2022/03/29 06:53:45;;;;;;;35.90;22.83;;;;;;;11.03;76.04;98864.88;4981858;28;20317;-78
2022/03/29 06:56:11;;;;;;;32.75;20.75;;;;;;;10.91;76.31;98858.53;4991625;28;20705;-77
2022/03/29 06:58:38;;;;;;;30.20;20.98;;;;;;;11.18;75.09;98871.88;4993363;28;20219;-78
2022/03/29 07:01:05;;;;;;;30.75;20.75;;;;;;;11.12;74.84;98864.22;4992922;28;20227;-76
2022/03/29 07:03:35;;;;;;;33.03;21.85;;;;;;;11.19;75.33;98865.53;4993274;28;20192;-77
2022/03/29 07:06:03;;;;;;;32.60;21.48;;;;;;;11.60;72.43;98868.84;4992812;28;20261;-77
2022/03/29 07:08:30;;;;;;;33.78;22.38;;;;;;;11.71;71.46;98868.03;4991853;28;20195;-78
2022/03/29 07:13:38;;;;;;;33.13;22.55;;;;;;;11.97;68.54;98874.22;4990171;28;20202;-78
2022/03/29 07:16:05;;;;;;;33.97;23.23;;;;;;;12.05;68.08;98869.97;4992283;28;20203;-76
2022/03/29 07:18:33;;;;;;;34.70;23.10;;;;;;;12.18;67.08;98869.03;4993130;28;20191;-78
2022/03/29 07:21:00;;;;;;;39.40;22.55;;;;;;;12.20;66.78;98865.22;4992283;28;20569;-77
2022/03/29 07:23:29;;;;;;;34.53;23.00;;;;;;;12.16;66.94;98865.59;4992311;28;20294;-78
2022/03/29 07:25:56;;;;;;;35.58;23.52;;;;;;;12.17;66.76;98859.22;4991383;28;20195;-76
2022/03/29 07:28:23;;;;;;;35.63;23.65;;;;;;;12.22;66.80;98860.59;4992450;28;20222;-77
2022/03/29 07:30:51;;;;;;;32.85;22.33;;;;;;;11.92;68.17;98868.28;4991501;28;20191;-77
2022/03/29 07:33:18;;;;;;;33.33;23.55;;;;;;;12.00;68.06;98855.09;4992501;28;20954;-78
2022/03/29 07:35:47;;;;;;;32.72;24.38;;;;;;;12.16;67.15;98861.03;4993410;28;20231;-80
2022/03/29 07:38:17;;;;;;;36.28;25.40;;;;;;;12.30;66.56;98852.78;4994043;28;20227;-78
2022/03/29 07:40:44;;;;;;;35.03;23.65;;;;;;;12.45;65.73;98853.41;4993746;28;20568;-78
2022/03/29 07:43:13;;;;;;;40.28;25.52;;;;;;;12.72;64.35;98850.38;4993696;28;20212;-78
2022/03/29 07:45:40;;;;;;;34.72;23.00;;;;;;;12.85;63.69;98847.59;4993224;28;20184;-77
2022/03/29 07:48:07;;;;;;;38.13;23.17;;;;;;;12.97;62.69;98853.00;5002145;28;20201;-79
2022/03/29 07:50:35;;;;;;;33.35;23.02;;;;;;;12.98;62.61;98841.19;5011140;28;20195;-78
2022/03/29 07:53:05;;;;;;;43.30;24.90;;;;;;;13.10;62.77;98848.31;4990919;28;20686;-78
2022/03/29 07:55:32;;;;;;;32.22;22.98;;;;;;;13.13;62.07;98839.97;4993757;28;20234;-78
2022/03/29 07:57:59;;;;;;;35.72;24.52;;;;;;;13.27;61.61;98838.84;4992086;28;20200;-77
2022/03/29 08:00:35;;;;;;;37.13;22.95;;;;;;;13.18;62.00;98831.47;4975300;28;20745;-80
2022/03/29 08:03:04;;;;;;;34.95;24.60;;;;;;;12.96;62.90;98822.41;4991804;28;20693;-79
2022/03/29 08:05:31;;;;;;;38.70;24.83;;;;;;;13.01;63.02;98830.16;4992526;28;20185;-78
2022/03/29 08:07:58;;;;;;;41.65;26.38;;;;;;;13.14;63.24;98833.59;4974742;28;20209;-78
2022/03/29 08:10:30;;;;;;;35.88;24.00;;;;;;;13.07;63.27;98825.13;4994291;28;20526;-78
2022/03/29 08:12:57;;;;;;;38.75;23.38;;;;;;;13.08;63.32;98826.81;4992411;28;20199;-78
2022/03/29 08:15:24;;;;;;;38.97;24.33;;;;;;;13.09;63.05;98828.56;4991065;28;20192;-78
2022/03/29 08:17:51;;;;;;;41.03;23.88;;;;;;;13.13;62.29;98829.16;4992131;28;20212;-78
2022/03/29 08:20:18;;;;;;;35.10;26.17;;;;;;;13.23;62.60;98830.13;4995021;28;20210;-80
2022/03/29 08:22:46;;;;;;;38.20;24.20;;;;;;;13.29;62.13;98813.41;4997556;28;20556;-81
2022/03/29 08:25:15;;;;;;;39.90;26.13;;;;;;;13.68;60.70;98823.78;4996298;28;20199;-79
2022/03/29 08:27:44;;;;;;;32.55;23.17;;;;;;;13.99;58.26;98827.47;4997605;28;20188;-78
2022/03/29 08:30:12;;;;;;;42.20;24.63;;;;;;;14.10;58.13;98819.31;4996008;28;20208;-80
2022/03/29 08:32:39;;;;;;;35.60;23.75;;;;;;;14.45;56.56;98826.28;4996626;28;20563;-78
2022/03/29 08:35:08;;;;;;;36.30;23.13;;;;;;;14.69;55.34;98826.00;4995525;28;20208;-81
2022/03/29 08:37:35;;;;;;;38.50;24.85;;;;;;;14.76;54.94;98819.06;4995927;28;20217;-80
2022/03/29 08:40:02;;;;;;;36.28;24.95;;;;;;;15.21;53.56;98817.81;4996488;28;20209;-80
2022/03/29 08:42:30;;;;;;;34.50;22.52;;;;;;;15.53;51.49;98822.19;4997432;28;20195;-80
2022/03/29 08:44:58;;;;;;;35.90;22.90;;;;;;;15.77;50.31;98830.00;4996032;28;20200;-79
2022/03/29 08:47:26;;;;;;;30.30;20.58;;;;;;;16.14;48.53;98818.41;4996539;28;20188;-79
2022/03/29 08:49:53;;;;;;;32.28;21.48;;;;;;;16.31;47.57;98809.56;5002864;28;20634;-80
2022/03/29 08:52:21;;;;;;;32.95;22.55;;;;;;;16.36;47.18;98807.25;4996294;28;20195;-81
2022/03/29 08:54:49;;;;;;;35.28;24.77;;;;;;;16.43;46.07;98813.81;4995642;28;20206;-80
2022/03/29 08:57:16;;;;;;;28.73;21.75;;;;;;;16.54;46.15;98810.06;4996624;28;20626;-81
2022/03/29 08:59:43;;;;;;;32.38;20.83;;;;;;;16.57;44.85;98809.78;4995241;28;20199;-80
2022/03/29 09:02:13;;;;;;;25.98;18.20;;;;;;;16.68;44.12;98798.72;4995679;28;20230;-79
2022/03/29 09:04:39;;;;;;;30.50;18.00;;;;;;;16.65;43.40;98807.19;4995034;28;20203;-77
2022/03/29 09:07:06;;;;;;;27.20;18.80;;;;;;;16.80;42.97;98793.16;4994119;28;20210;-78
2022/03/29 09:09:35;;;;;;;23.05;17.60;;;;;;;16.57;42.81;98808.94;4995347;28;20257;-77
2022/03/29 09:12:11;;;;;;;26.13;18.00;;;;;;;16.74;42.51;98805.47;4995612;28;20519;-78
2022/03/29 09:14:51;;;;;;;22.77;17.00;;;;;;;16.43;42.85;98802.94;4988969;28;20250;-76
2022/03/29 09:17:34;;;;;;;24.65;18.30;;;;;;;16.78;42.57;98800.56;4994185;28;20183;-78
2022/03/29 09:20:03;;;;;;;27.63;18.88;;;;;;;16.67;42.39;98801.63;4995270;28;20203;-78
2022/03/29 09:22:38;;;;;;;22.73;18.10;;;;;;;16.45;42.39;98794.66;4995093;28;20950;-78
2022/03/29 09:25:06;;;;;;;28.13;18.27;;;;;;;16.74;42.19;98789.16;4995681;28;20202;-76
2022/03/29 09:27:48;;;;;;;22.33;16.30;;;;;;;16.86;41.51;98798.00;4994849;28;20287;-77
2022/03/29 09:30:16;;;;;;;24.58;18.92;;;;;;;17.07;40.85;98792.31;4995260;28;20542;-76
2022/03/29 09:32:53;;;;;;;19.67;16.23;;;;;;;16.98;41.15;98785.06;4993344;28;20196;-76
2022/03/29 09:35:19;;;;;;;24.60;17.13;;;;;;;16.83;41.30;98777.41;4995401;28;20546;-78
2022/03/29 09:37:46;;;;;;;29.65;17.80;;;;;;;16.70;41.42;98776.00;4994514;28;20198;-76
2022/03/29 09:40:13;;;;;;;21.60;16.65;;;;;;;16.60;41.33;98776.88;4995221;28;20306;-78
2022/03/29 09:42:40;;;;;;;27.58;17.38;;;;;;;16.88;41.06;98775.09;4995094;28;20192;-78
2022/03/29 09:45:08;;;;;;;21.13;16.23;;;;;;;17.40;39.96;98784.59;4994223;28;20203;-78
2022/03/29 09:47:35;;;;;;;23.08;16.10;;;;;;;17.39;39.67;98774.69;4994843;28;20222;-78
2022/03/29 09:50:06;;;;;;;21.80;16.17;;;;;;;17.30;39.76;98765.59;4994757;28;20200;-78
2022/03/29 09:52:36;;;;;;;25.70;17.27;;;;;;;17.51;39.58;98770.75;4994806;28;20208;-78
2022/03/29 09:55:21;;;;;;;21.63;17.17;;;;;;;17.98;38.76;98767.84;4995253;28;20487;-78
2022/03/29 09:57:49;;;;;;;20.88;16.25;;;;;;;18.10;38.65;98758.41;4994351;28;20195;-77
2022/03/29 10:00:19;;;;;;;21.70;16.58;;;;;;;17.86;38.75;98753.63;4993990;28;20223;-78
2022/03/29 10:02:47;;;;;;;20.98;17.30;;;;;;;18.09;38.44;98745.81;4994193;28;20267;-78
2022/03/29 10:05:18;;;;;;;18.13;15.70;;;;;;;18.01;38.17;98742.16;4994333;28;20219;-77
2022/03/29 10:07:46;;;;;;;24.08;17.70;;;;;;;18.23;38.18;98744.41;4994425;28;20271;-78
2022/03/29 10:10:13;;;;;;;25.42;17.00;;;;;;;18.63;37.37;98733.91;4994741;28;20533;-78
2022/03/29 10:12:40;;;;;;;22.75;16.35;;;;;;;18.38;37.56;98725.56;4994255;28;20550;-78
2022/03/29 10:15:08;;;;;;;22.98;16.95;;;;;;;18.52;37.27;98735.91;4994387;28;20228;-81
2022/03/29 10:17:35;;;;;;;21.08;16.65;;;;;;;18.70;36.73;98729.50;4993851;28;20203;-76
2022/03/29 10:20:02;;;;;;;23.48;17.77;;;;;;;18.83;36.57;98734.56;4994531;28;20636;-76
2022/03/29 10:22:30;;;;;;;21.48;17.20;;;;;;;19.02;36.32;98734.31;4994027;28;20257;-78
2022/03/29 10:24:57;;;;;;;20.35;17.10;;;;;;;19.01;36.25;98727.13;4991477;28;20536;-76
2022/03/29 10:27:24;;;;;;;25.65;17.77;;;;;;;18.87;36.34;98725.88;4994855;28;20191;-76
2022/03/29 10:29:51;;;;;;;26.60;17.67;;;;;;;19.23;35.61;98724.84;4994497;28;20205;-77
2022/03/29 10:32:32;;;;;;;23.95;19.05;;;;;;;19.24;35.20;98710.16;4994540;28;20213;-77
2022/03/29 10:35:07;;;;;;;21.67;17.23;;;;;;;18.95;35.24;98716.91;4992275;28;20211;-79
2022/03/29 10:37:54;;;;;;;25.25;17.73;;;;;;;18.73;35.84;98707.41;4993562;28;20275;-77
2022/03/29 10:40:36;;;;;;;24.27;19.27;;;;;;;18.84;35.70;98704.41;4994842;28;20190;-79
2022/03/29 10:43:28;;;;;;;22.23;17.30;;;;;;;19.03;35.56;98694.25;4993646;28;20195;-78
2022/03/29 10:45:55;;;;;;;23.98;20.35;;;;;;;19.07;35.12;98695.63;4994373;28;20540;-79
2022/03/29 10:48:22;;;;;;;28.65;19.38;;;;;;;18.74;35.91;98692.72;4993745;28;20190;-78
2022/03/29 10:50:57;;;;;;;25.75;18.33;;;;;;;19.07;35.65;98696.47;4992678;28;20191;-77
2022/03/29 10:53:28;;;;;;;22.98;16.83;;;;;;;19.21;35.10;98696.88;4984184;28;20199;-77
2022/03/29 10:56:25;;;;;;;25.60;15.95;;;;;;;19.59;34.64;98689.94;4993671;28;20189;-77
2022/03/29 10:59:11;;;;;;;21.60;17.25;;;;;;;19.64;34.27;98671.19;4994385;28;20266;-77
2022/03/29 11:01:40;;;;;;;25.88;17.15;;;;;;;19.64;33.87;98673.91;4993431;28;20242;-77
2022/03/29 11:04:08;;;;;;;24.30;16.98;;;;;;;19.46;34.17;98679.50;4993575;28;20675;-78
2022/03/29 11:06:36;;;;;;;23.90;17.20;;;;;;;19.64;33.72;98662.97;4992696;28;20203;-76
2022/03/29 11:09:06;;;;;;;24.33;17.77;;;;;;;19.41;33.90;98668.25;4993312;28;21036;-78
2022/03/29 11:11:41;;;;;;;23.48;17.83;;;;;;;18.96;34.50;98666.78;4992952;28;20198;-78
2022/03/29 11:14:39;;;;;;;19.42;16.30;;;;;;;19.05;34.50;98656.75;4992884;28;20201;-77
2022/03/29 11:17:40;;;;;;;23.08;17.75;;;;;;;18.84;34.72;98640.84;4993319;28;20197;-81
2022/03/29 11:20:32;;;;;;;23.50;17.88;;;;;;;19.08;34.25;98646.34;4993309;28;20232;-79
2022/03/29 11:23:04;;;;;;;23.20;16.95;;;;;;;19.41;34.11;98635.50;4993783;28;20197;-82
2022/03/29 11:25:39;;;;;;;19.35;15.43;;;;;;;19.76;33.61;98644.41;4976989;28;20226;-80
2022/03/29 11:28:07;;;;;;;19.67;15.13;;;;;;;19.85;33.10;98637.91;4982664;28;20206;-82
2022/03/29 11:30:35;;;;;;;23.58;17.65;;;;;;;19.92;32.99;98627.16;4994423;28;20482;-82
2022/03/29 11:33:03;;;;;;;20.85;17.98;;;;;;;19.96;32.92;98623.91;4995387;28;20608;-81